createdAt,value
2022-08-10T00:02:19.274Z,45.59
2022-08-10T00:05:22.325Z,46.00
2022-08-10T00:08:26.088Z,45.58
2022-08-10T00:11:28.999Z,45.57
2022-08-10T00:14:33.189Z,46.61
2022-08-10T00:17:36.094Z,46.38
2022-08-10T00:20:39.031Z,46.26
2022-08-10T00:23:42.079Z,46.80
2022-08-10T00:27:49.919Z,47.07
2022-08-10T00:30:10.633Z,47.43
2022-08-10T00:33:13.434Z,47.12
2022-08-10T00:36:16.189Z,47.20
2022-08-10T00:39:18.910Z,48.36
2022-08-10T00:42:21.901Z,48.20
2022-08-10T00:45:25.983Z,48.20
2022-08-10T00:48:30.345Z,48.56
2022-08-10T00:51:43.226Z,48.57
2022-08-10T00:54:51.816Z,48.50
2022-08-10T00:57:54.807Z,48.85
2022-08-10T01:00:59.826Z,48.62
2022-08-10T01:04:40.070Z,48.99
2022-08-10T01:07:43.069Z,48.84
2022-08-10T01:10:56.562Z,49.30
2022-08-10T01:14:08.430Z,49.43
2022-08-10T01:17:15.309Z,49.83
2022-08-10T01:20:30.166Z,49.87
2022-08-10T01:24:06.590Z,49.92
2022-08-10T01:27:27.030Z,49.58
2022-08-10T01:30:34.611Z,49.52
2022-08-10T01:33:59.089Z,50.01
2022-08-10T01:37:09.132Z,49.85
2022-08-10T01:40:16.740Z,50.76
2022-08-10T01:43:20.880Z,50.57
2022-08-10T01:46:26.251Z,50.91
2022-08-10T01:49:30.040Z,51.18
2022-08-10T01:52:34.387Z,51.30
2022-08-10T01:55:39.222Z,51.22
2022-08-10T01:58:43.921Z,51.63
2022-08-10T02:01:51.383Z,51.87
2022-08-10T02:04:56.115Z,52.48
2022-08-10T02:08:01.787Z,52.30
2022-08-10T02:11:06.227Z,52.54
2022-08-10T02:14:11.914Z,52.50
2022-08-10T02:18:00.903Z,52.12
2022-08-10T02:20:47.802Z,52.65
2022-08-10T02:23:54.141Z,53.15
2022-08-10T02:27:05.749Z,53.60
2022-08-10T02:30:11.255Z,53.60
2022-08-10T02:33:18.293Z,53.73
2022-08-10T02:36:23.464Z,53.93
2022-08-10T02:39:27.226Z,54.16
2022-08-10T02:45:20.715Z,54.94
2022-08-10T02:46:04.529Z,54.90
2022-08-10T02:49:13.952Z,55.26
2022-08-10T02:52:20.605Z,55.87
2022-08-10T02:55:32.785Z,55.90
2022-08-10T02:58:40.933Z,55.67
2022-08-10T03:01:47.693Z,56.20
2022-08-10T03:04:58.070Z,56.16
2022-08-10T03:08:03.003Z,56.73
2022-08-10T03:11:07.796Z,56.85
2022-08-10T03:14:11.817Z,57.22
2022-08-10T03:17:17.922Z,57.38
2022-08-10T03:20:37.310Z,57.56
2022-08-10T03:23:42.573Z,57.36
2022-08-10T03:26:45.451Z,57.60
2022-08-10T03:30:28.626Z,57.71
2022-08-10T03:33:13.897Z,57.57
2022-08-10T03:36:42.227Z,57.86
2022-08-10T03:39:40.975Z,58.28
2022-08-10T03:42:45.679Z,58.44
2022-08-10T03:45:55.839Z,58.69
2022-08-10T03:49:03.238Z,58.57
2022-08-10T03:52:07.621Z,58.67
2022-08-10T03:55:10.822Z,58.96
2022-08-10T03:58:13.815Z,59.25
2022-08-10T04:01:17.669Z,58.75
2022-08-10T04:04:24.595Z,59.13
2022-08-10T04:07:29.516Z,59.05
2022-08-10T04:10:32.317Z,59.50
2022-08-10T04:13:35.108Z,59.86
2022-08-10T04:16:37.911Z,59.92
2022-08-10T04:19:45.917Z,59.49
2022-08-10T04:22:53.505Z,60.47
2022-08-10T04:25:57.193Z,60.10
2022-08-10T04:29:00.117Z,59.90
2022-08-10T04:32:05.918Z,60.35
2022-08-10T04:35:10.927Z,60.47
2022-08-10T04:38:16.648Z,60.42
2022-08-10T04:41:19.901Z,60.07
2022-08-10T04:44:22.572Z,60.26
2022-08-10T04:47:51.255Z,60.18
2022-08-10T04:50:55.548Z,61.08
2022-08-10T04:54:08.151Z,61.31
2022-08-10T04:57:12.869Z,60.72
2022-08-10T05:00:19.009Z,60.52
2022-08-10T05:03:23.027Z,61.11
2022-08-10T05:06:26.797Z,60.93
2022-08-10T05:09:32.115Z,61.24
2022-08-10T05:12:38.828Z,61.07
2022-08-10T05:15:44.248Z,60.38
2022-08-10T05:18:48.236Z,60.60
2022-08-10T05:22:04.167Z,60.34
2022-08-10T05:25:11.825Z,60.01
2022-08-10T05:28:14.569Z,57.67
2022-08-10T05:31:23.972Z,58.40
2022-08-10T05:34:28.654Z,58.47
2022-08-10T05:38:11.592Z,57.42
2022-08-10T05:40:58.144Z,57.89
2022-08-10T05:44:01.100Z,56.68
2022-08-10T05:47:04.198Z,56.91
2022-08-10T05:50:08.137Z,57.29
2022-08-10T05:54:01.478Z,58.03
2022-08-10T05:56:56.982Z,57.48
2022-08-10T06:00:34.427Z,56.02
2022-08-10T06:03:28.750Z,55.72
2022-08-10T06:06:35.087Z,55.13
2022-08-10T06:09:59.777Z,55.00
2022-08-10T06:13:30.658Z,54.83
2022-08-10T06:16:38.882Z,53.76
2022-08-10T06:19:43.117Z,52.41
2022-08-10T06:22:45.874Z,51.97
2022-08-10T06:26:11.422Z,50.99
2022-08-10T06:29:15.875Z,51.26
2022-08-10T06:32:19.520Z,49.12
2022-08-10T06:35:24.101Z,46.96
2022-08-10T06:38:29.702Z,42.77
2022-08-10T06:42:01.360Z,41.08
2022-08-10T06:45:05.601Z,39.09
2022-08-10T06:48:14.989Z,38.25
2022-08-10T06:51:23.779Z,39.02
2022-08-10T06:54:29.887Z,39.42
2022-08-10T06:57:35.597Z,40.63
2022-08-10T07:00:44.016Z,40.08
2022-08-10T07:03:54.913Z,39.70
2022-08-10T07:07:00.189Z,40.46
2022-08-10T07:10:02.958Z,40.26
2022-08-10T07:13:06.554Z,40.92
2022-08-10T07:16:13.281Z,39.06
2022-08-10T07:19:18.142Z,38.93
2022-08-10T07:23:01.734Z,39.07
2022-08-10T07:25:49.175Z,37.70
2022-08-10T07:28:53.714Z,36.35
2022-08-10T07:31:59.819Z,36.69
2022-08-10T07:35:03.750Z,36.50
2022-08-10T07:38:11.429Z,35.70
2022-08-10T07:41:18.002Z,35.85
2022-08-10T07:44:23.239Z,35.27
2022-08-10T07:47:53.624Z,35.26
2022-08-10T07:50:59.299Z,34.71
2022-08-10T07:54:05.912Z,34.73
2022-08-10T07:57:16.915Z,34.38
2022-08-10T08:00:34.893Z,35.03
2022-08-10T08:03:41.589Z,34.10
2022-08-10T08:06:45.493Z,34.67
2022-08-10T08:09:57.879Z,34.02
2022-08-10T08:13:04.421Z,33.70
2022-08-10T08:16:15.637Z,33.68
2022-08-10T08:19:28.176Z,33.51
2022-08-10T08:24:07.236Z,33.15
2022-08-10T08:26:03.215Z,32.87
2022-08-10T08:29:06.410Z,33.19
2022-08-10T08:32:11.376Z,32.40
2022-08-10T08:35:19.346Z,32.73
2022-08-10T08:38:32.850Z,31.66
2022-08-10T08:42:02.454Z,31.36
2022-08-10T08:45:15.111Z,31.79
2022-08-10T08:48:36.673Z,31.12
2022-08-10T08:52:09.849Z,31.59
2022-08-10T08:56:03.117Z,30.10
2022-08-10T08:59:07.867Z,29.90
2022-08-10T09:02:24.813Z,29.44
2022-08-10T09:05:58.930Z,29.53
2022-08-10T09:09:33.447Z,29.30
2022-08-10T09:12:48.811Z,29.20
2022-08-10T09:16:00.497Z,29.28
2022-08-10T09:19:09.339Z,28.07
2022-08-10T09:22:19.478Z,28.61
2022-08-10T09:25:27.213Z,26.91
2022-08-10T09:28:37.175Z,26.12
2022-08-10T09:31:55.521Z,26.02
2022-08-10T09:36:27.003Z,25.81
2022-08-10T09:38:50.003Z,25.14
2022-08-10T09:42:05.575Z,25.65
2022-08-10T09:45:17.610Z,25.50
2022-08-10T09:48:28.042Z,25.80
2022-08-10T09:51:45.878Z,26.35
2022-08-10T09:55:05.153Z,24.86
2022-08-10T09:58:26.010Z,24.86
2022-08-10T10:02:02.868Z,24.40
2022-08-10T10:05:08.952Z,23.96
2022-08-10T10:08:20.322Z,23.86
2022-08-10T10:11:30.042Z,22.57
2022-08-10T10:15:01.431Z,23.11
2022-08-10T10:18:30.705Z,23.78
2022-08-10T10:21:55.427Z,24.27
2022-08-10T10:25:18.194Z,24.84
2022-08-10T10:29:11.513Z,25.09
2022-08-10T10:32:09.433Z,24.25
2022-08-10T10:35:20.777Z,23.20
2022-08-10T10:38:26.943Z,23.38
2022-08-10T10:41:56.135Z,24.20
2022-08-10T10:45:14.636Z,24.15
2022-08-10T10:48:29.272Z,24.26
2022-08-10T10:51:35.678Z,24.46
2022-08-10T10:54:45.895Z,24.48
2022-08-10T10:58:01.093Z,24.13
2022-08-10T11:01:12.231Z,23.85
2022-08-10T11:04:25.378Z,23.61
2022-08-10T11:07:35.648Z,22.83
2022-08-10T11:10:47.232Z,22.91
2022-08-10T11:14:26.143Z,22.87
2022-08-10T11:17:31.062Z,22.77
2022-08-10T11:20:45.030Z,22.40
2022-08-10T11:24:48.124Z,22.21
2022-08-10T11:27:26.270Z,22.74
2022-08-10T11:30:37.710Z,23.27
2022-08-10T11:34:11.326Z,22.20
2022-08-10T11:37:19.558Z,22.02
2022-08-10T11:40:29.166Z,22.63
2022-08-10T11:43:39.130Z,22.51
2022-08-10T11:46:47.300Z,22.29
2022-08-10T11:49:54.724Z,22.87
2022-08-10T11:53:11.050Z,22.71
2022-08-10T11:56:23.015Z,22.47
2022-08-10T11:59:46.070Z,22.92
2022-08-10T12:02:53.586Z,21.82
2022-08-10T12:05:56.972Z,22.45
2022-08-10T12:10:11.389Z,22.22
2022-08-10T12:12:30.341Z,22.45
2022-08-10T12:15:39.905Z,22.65
2022-08-10T12:18:48.008Z,22.28
2022-08-10T12:21:57.854Z,22.63
2022-08-10T12:25:08.489Z,23.11
2022-08-10T12:28:15.695Z,22.04
2022-08-10T12:31:20.155Z,22.21
2022-08-10T12:34:31.152Z,21.99
2022-08-10T12:37:40.008Z,22.13
2022-08-10T12:40:48.859Z,22.11
2022-08-10T12:44:07.561Z,21.65
2022-08-10T12:47:21.129Z,21.64
2022-08-10T12:50:33.247Z,21.01
2022-08-10T12:53:51.118Z,21.59
2022-08-10T12:57:02.958Z,21.69
2022-08-10T13:00:10.525Z,21.97
2022-08-10T13:04:21.150Z,22.58
2022-08-10T13:06:49.672Z,22.15
2022-08-10T13:09:56.375Z,22.02
2022-08-10T13:13:02.180Z,21.61
2022-08-10T13:16:06.569Z,21.80
2022-08-10T13:19:11.780Z,21.71
2022-08-10T13:22:17.431Z,21.40
2022-08-10T13:25:29.235Z,20.75
2022-08-10T13:28:43.289Z,21.34
2022-08-10T13:32:09.014Z,21.60
2022-08-10T13:35:17.517Z,21.08
2022-08-10T13:38:23.128Z,21.53
2022-08-10T13:41:29.563Z,21.16
2022-08-10T13:44:38.233Z,21.12
2022-08-10T13:47:49.403Z,21.59
2022-08-10T13:50:58.924Z,20.99
2022-08-10T13:54:03.690Z,20.53
2022-08-10T13:57:07.839Z,20.05
2022-08-10T14:00:36.500Z,20.11
2022-08-10T14:03:40.749Z,19.86
2022-08-10T14:06:51.978Z,19.61
2022-08-10T14:10:04.925Z,20.12
2022-08-10T14:13:09.749Z,19.94
2022-08-10T14:16:15.355Z,20.53
2022-08-10T14:19:20.487Z,20.32
2022-08-10T14:22:34.083Z,19.61
2022-08-10T14:25:48.711Z,19.61
2022-08-10T14:28:55.977Z,20.22
2022-08-10T14:32:02.601Z,20.27
2022-08-10T14:36:18.836Z,20.40
2022-08-10T14:38:35.102Z,19.68
2022-08-10T14:42:01.380Z,19.72
2022-08-10T14:45:08.294Z,19.84
2022-08-10T14:48:16.874Z,19.82
2022-08-10T14:51:21.826Z,20.17
2022-08-10T14:54:29.625Z,20.50
2022-08-10T14:58:18.845Z,20.00
2022-08-10T15:00:59.234Z,20.40
2022-08-10T15:04:07.447Z,19.59
2022-08-10T15:07:20.768Z,19.92
2022-08-10T15:10:25.128Z,19.61
2022-08-10T15:13:34.486Z,20.08
2022-08-10T15:16:38.513Z,20.40
2022-08-10T15:20:02.380Z,19.82
2022-08-10T15:23:31.113Z,19.68
2022-08-10T15:26:35.250Z,20.15
2022-08-10T15:29:56.537Z,20.22
2022-08-10T15:33:59.373Z,20.50
2022-08-10T15:37:39.628Z,20.53
2022-08-10T15:40:52.027Z,20.30
2022-08-10T15:43:55.945Z,20.80
2022-08-10T15:47:02.575Z,20.85
2022-08-10T15:50:08.478Z,20.54
2022-08-10T15:53:17.105Z,20.15
2022-08-10T15:56:28.104Z,20.25
2022-08-10T15:59:34.310Z,20.28
2022-08-10T16:02:50.410Z,19.94
2022-08-10T16:06:02.183Z,20.39
2022-08-10T16:10:24.277Z,20.16
2022-08-10T16:12:42.611Z,20.05
2022-08-10T16:15:53.315Z,19.48
2022-08-10T16:18:56.349Z,21.00
2022-08-10T16:22:02.623Z,20.49
2022-08-10T16:25:47.802Z,21.33
2022-08-10T16:28:58.852Z,21.32
2022-08-10T16:32:04.321Z,21.56
2022-08-10T16:35:10.487Z,21.91
2022-08-10T16:38:15.195Z,21.89
2022-08-10T16:42:03.331Z,21.80
2022-08-10T16:45:00.734Z,21.54
2022-08-10T16:48:12.659Z,22.25
2022-08-10T16:51:26.883Z,21.79
2022-08-10T16:54:45.770Z,22.47
2022-08-10T16:58:15.077Z,23.26
2022-08-10T17:01:51.509Z,22.37
2022-08-10T17:06:03.342Z,22.34
2022-08-10T17:08:55.286Z,23.21
2022-08-10T17:12:15.098Z,22.83
2022-08-10T17:15:45.403Z,23.73
2022-08-10T17:19:03.869Z,23.59
2022-08-10T17:22:21.630Z,23.86
2022-08-10T17:25:48.826Z,24.34
2022-08-10T17:29:02.727Z,23.68
2022-08-10T17:32:21.326Z,24.06
2022-08-10T17:35:30.783Z,23.74
2022-08-10T17:38:38.903Z,23.62
2022-08-10T17:41:49.355Z,23.62
2022-08-10T17:44:58.076Z,23.82
2022-08-10T17:48:09.838Z,25.06
2022-08-10T17:51:21.891Z,24.83
2022-08-10T17:54:39.460Z,24.17
2022-08-10T17:58:01.946Z,24.59
2022-08-10T18:01:41.240Z,24.62
2022-08-10T18:04:56.925Z,24.75
2022-08-10T18:08:36.833Z,25.10
2022-08-10T18:12:18.126Z,24.99
2022-08-10T18:15:27.587Z,25.33
2022-08-10T18:18:46.932Z,25.91
2022-08-10T18:22:00.106Z,26.79
2022-08-10T18:25:35.138Z,26.57
2022-08-10T18:29:03.598Z,26.08
2022-08-10T18:32:20.015Z,26.03
2022-08-10T18:35:40.909Z,26.36
2022-08-10T18:38:56.591Z,27.37
2022-08-10T18:42:15.724Z,27.70
2022-08-10T18:45:39.033Z,28.05
2022-08-10T18:49:04.308Z,28.65
2022-08-10T18:52:29.903Z,28.75
2022-08-10T18:56:09.374Z,29.08
2022-08-10T19:00:07.888Z,29.27
2022-08-10T19:03:54.343Z,29.94
2022-08-10T19:07:33.673Z,30.79
2022-08-10T19:14:47.424Z,31.91
2022-08-10T19:18:26.655Z,32.01
2022-08-10T19:22:04.111Z,32.20
2022-08-10T19:26:40.981Z,32.49
2022-08-10T19:29:13.899Z,32.42
2022-08-10T19:32:52.840Z,33.36
2022-08-10T19:36:13.174Z,32.94
2022-08-10T19:39:28.642Z,33.52
2022-08-10T19:42:40.758Z,34.73
2022-08-10T19:46:03.206Z,34.72
2022-08-10T19:49:20.525Z,34.87
2022-08-10T19:52:35.455Z,34.85
2022-08-10T19:55:47.089Z,34.67
2022-08-10T19:59:17.436Z,34.92
2022-08-10T20:03:04.257Z,34.50
2022-08-10T20:06:24.585Z,34.20
2022-08-10T20:09:36.686Z,34.80
2022-08-10T20:12:52.741Z,35.40
2022-08-10T20:16:07.716Z,35.66
2022-08-10T20:19:27.222Z,35.70
2022-08-10T20:22:56.957Z,35.06
2022-08-10T20:26:07.085Z,35.21
2022-08-10T20:29:57.449Z,35.33
2022-08-10T20:32:53.157Z,35.05
2022-08-10T20:36:15.588Z,35.36
2022-08-10T20:39:31.450Z,35.47
2022-08-10T20:42:54.288Z,36.40
2022-08-10T20:46:11.198Z,36.49
2022-08-10T20:49:37.554Z,36.73
2022-08-10T20:52:54.363Z,37.29
2022-08-10T20:56:20.681Z,37.16
2022-08-10T21:00:02.507Z,37.16
2022-08-10T21:03:58.557Z,37.66
2022-08-10T21:07:44.109Z,37.97
2022-08-10T21:11:11.915Z,38.60
2022-08-10T21:14:33.093Z,38.44
2022-08-10T21:18:09.633Z,39.34
2022-08-10T21:25:15.488Z,40.19
2022-08-10T21:28:59.768Z,40.27
2022-08-10T21:32:32.987Z,40.71
2022-08-10T21:35:57.171Z,41.11
2022-08-10T21:39:13.981Z,40.85
2022-08-10T21:42:49.034Z,41.02
2022-08-10T21:46:38.365Z,41.57
2022-08-10T21:54:19.177Z,41.31
2022-08-10T22:01:54.844Z,41.51
2022-08-10T22:09:18.514Z,41.27
2022-08-10T22:13:01.584Z,41.27
2022-08-10T22:16:29.725Z,41.45
2022-08-10T22:19:58.952Z,41.40
2022-08-10T22:23:43.955Z,41.63
2022-08-10T22:27:47.333Z,41.62
2022-08-10T22:31:37.075Z,41.45
2022-08-10T22:35:22.383Z,42.14
2022-08-10T22:39:03.860Z,43.04
2022-08-10T22:42:59.486Z,43.55
2022-08-10T22:46:28.500Z,43.20
2022-08-10T22:49:34.778Z,43.49
2022-08-10T22:53:08.172Z,43.90
2022-08-10T22:57:06.289Z,44.28
2022-08-10T23:00:39.914Z,44.81
2022-08-10T23:04:35.767Z,44.74
2022-08-10T23:07:52.224Z,44.82
2022-08-10T23:11:08.431Z,45.16
2022-08-10T23:14:21.493Z,45.24
2022-08-10T23:18:00.849Z,44.97
2022-08-10T23:21:16.512Z,45.37
2022-08-10T23:24:30.774Z,45.48
2022-08-10T23:27:45.914Z,45.10
2022-08-10T23:30:59.456Z,45.41
2022-08-10T23:34:11.165Z,45.30
2022-08-10T23:37:20.624Z,45.53
2022-08-10T23:40:53.101Z,46.00
2022-08-10T23:44:12.201Z,45.91
2022-08-10T23:47:30.520Z,46.74
2022-08-10T23:50:36.437Z,46.71
2022-08-10T23:54:03.799Z,47.31
2022-08-10T23:57:10.454Z,47.79
